Αρχική σελίδα
METAR-TAF:

METAR-TAF

Αεροδρόμια :

Hugoton, Κάνσας, Ηνωμένες Πολιτείες Αμερικής

γεωγραφικό πλάτος: 37-09-47N, γεωγραφικό μήκος: 101-22-14W, υψόμετρο: 955 μ

Παρών καιρός

Η αναφορά έγινε 12 λεπτά πριν, στις 01:55 UTC
Άνεμος 11 kt από Ν
Θερμοκρασία 13°C
Υγρασία 54%
Πίεση 1018 hPa
Ορατότητα: 16.1 χλμ
Καθαρός ουρανός

METAR: KHQG 220155Z AUTO 19011KT 10SM CLR 13/04 A3006 RMK AO2 T01300035

Χρόνος: 21:07 (02:07 UTC)


TAF: λείπει

Μετεωρολογικές αναφορές και προγνώσεις για περισσότερα από 4000 αεροδρόμια (δελτία METAR και TAF).

Οι διαθέσιμοι σταθμοί απεικονίζονται στο χάρτη με κίτρινες και κόκκινες κουκκίδες.

Μετακινήστε το ποντίκι πάνω από τις κουκκίδες για να δείτε το όνομα του σταθμού.

Στη συνέχεια, κάντε κλικ για να δείτε τις μετεωρολογικές αναφορές και τις προγνώσεις καιρού.

Για να αλλάξετε το χάρτη: κάντε κλικ στα πράσινα κουμπιά με τον μαύρο σταυρό για να ζουμάρετε, στο πράσινο κουμπί με την παύλα για να αφαιρέσετε το ζουμ ή στα πράσινα βέλη για να αντιπαραβάλλετε χάρτες.


METAR-TAF: